Time;durP1;ratioP1;P1;durP2;ratioP2;P2;SDS_P1;SDS_P2;PMS_P1;PMS_P2;Temp;Humidity;BMP_temperature;BMP_pressure;BME280_temperature;BME280_humidity;BME280_pressure;Samples;Min_cycle;Max_cycle;Signal;HPM_P1;HPM_P2
2022/05/09 00:01:04;;;;;;;16.05;4.38;;;13.40;99.90;;;;;;5053993;28;20355;-78
2022/05/09 00:03:35;;;;;;;;;;;13.50;99.90;;;;;;5054639;28;20029;-76
2022/05/09 00:06:01;;;;;;;12.73;3.97;;;13.60;99.90;;;;;;5053954;28;19913;-76
2022/05/09 00:08:30;;;;;;;17.88;4.43;;;13.60;99.90;;;;;;5054408;28;20020;-76
2022/05/09 00:10:56;;;;;;;11.90;4.15;;;13.90;99.90;;;;;;5053999;28;20435;-76
2022/05/09 00:13:22;;;;;;;14.68;4.50;;;14.00;99.90;;;;;;5054244;28;20028;-76
2022/05/09 00:15:48;;;;;;;15.60;4.50;;;14.00;99.90;;;;;;5035773;28;20029;-76
2022/05/09 00:18:17;;;;;;;14.55;4.32;;;13.70;99.90;;;;;;5054082;28;20636;-76
2022/05/09 00:20:42;;;;;;;8.90;3.58;;;13.30;99.90;;;;;;5053811;28;20031;-76
2022/05/09 00:23:08;;;;;;;13.95;4.05;;;13.30;99.90;;;;;;5053733;28;20112;-75
2022/05/09 00:25:34;;;;;;;9.88;3.92;;;13.40;99.90;;;;;;5053958;28;20032;-75
2022/05/09 00:28:00;;;;;;;15.68;4.25;;;13.60;99.90;;;;;;5053674;28;20438;-75
2022/05/09 00:30:26;;;;;;;11.45;3.92;;;13.50;99.90;;;;;;5053467;28;20103;-76
2022/05/09 00:32:51;;;;;;;11.98;4.32;;;13.40;99.90;;;;;;5053719;28;20017;-76
2022/05/09 00:35:17;;;;;;;8.80;4.43;;;13.30;99.90;;;;;;5053487;28;20388;-75
2022/05/09 00:37:43;;;;;;;15.90;5.05;;;13.00;99.90;;;;;;5053686;28;20033;-76
2022/05/09 00:40:12;;;;;;;14.60;5.05;;;13.10;99.90;;;;;;5053684;28;20033;-77
2022/05/09 00:42:44;;;;;;;12.68;3.75;;;13.00;99.90;;;;;;5053463;28;20025;-77
2022/05/09 00:45:10;;;;;;;19.63;4.70;;;13.20;99.90;;;;;;5053188;28;20025;-76
2022/05/09 00:47:36;;;;;;;16.35;4.53;;;13.00;99.90;;;;;;5036854;28;20083;-74
2022/05/09 00:50:07;;;;;;;13.32;4.50;;;13.00;99.90;;;;;;5053511;28;20037;-74
2022/05/09 00:52:55;;;;;;;9.45;4.00;;;13.10;99.90;;;;;;5053820;28;20112;-74
2022/05/09 00:55:42;;;;;;;10.85;4.30;;;13.10;99.90;;;;;;5035507;28;20032;-75
2022/05/09 00:58:23;;;;;;;15.15;5.00;;;13.20;99.90;;;;;;5035239;28;20176;-75
2022/05/09 01:00:51;;;;;;;14.85;4.07;;;13.30;99.90;;;;;;5053107;28;20061;-77
2022/05/09 01:03:23;;;;;;;14.23;3.75;;;13.30;99.90;;;;;;5035007;28;20539;-77
2022/05/09 01:05:52;;;;;;;22.00;4.95;;;13.20;99.90;;;;;;5052933;28;20033;-77
2022/05/09 01:08:19;;;;;;;14.40;4.22;;;13.20;99.90;;;;;;5052915;28;20098;-77
2022/05/09 01:10:47;;;;;;;9.80;4.75;;;13.20;99.90;;;;;;5053135;28;20063;-77
2022/05/09 01:13:15;;;;;;;13.40;4.30;;;13.40;99.90;;;;;;5052597;28;20039;-77
2022/05/09 01:15:43;;;;;;;15.90;4.85;;;13.30;99.90;;;;;;5053116;28;20052;-77
2022/05/09 01:18:11;;;;;;;18.15;5.38;;;13.20;99.90;;;;;;5052797;28;20887;-77
2022/05/09 01:20:37;;;;;;;10.80;5.05;;;12.70;99.90;;;;;;5053052;28;20381;-74
2022/05/09 01:23:04;;;;;;;17.33;5.25;;;12.60;99.90;;;;;;5052572;28;20017;-76
2022/05/09 01:25:31;;;;;;;15.48;4.32;;;12.70;99.90;;;;;;5053013;28;20033;-75
2022/05/09 01:27:59;;;;;;;11.13;4.30;;;12.70;99.90;;;;;;5052723;28;20051;-74
2022/05/09 01:30:40;;;;;;;11.45;4.90;;;12.40;99.90;;;;;;5034938;28;20043;-74
2022/05/09 01:33:23;;;;;;;15.90;4.63;;;12.50;99.90;;;;;;5034633;28;20120;-73
2022/05/09 01:36:01;;;;;;;14.82;4.65;;;12.60;99.90;;;;;;5052674;28;20089;-75
2022/05/09 01:38:40;;;;;;;18.40;5.13;;;12.80;99.90;;;;;;5052619;28;20033;-76
2022/05/09 01:41:06;;;;;;;14.68;4.65;;;13.00;99.90;;;;;;5052752;28;20045;-76
2022/05/09 01:43:38;;;;;;;12.95;4.10;;;12.90;99.90;;;;;;5052336;28;20024;-76
2022/05/09 01:46:07;;;;;;;14.00;4.53;;;13.10;99.90;;;;;;5052561;28;20519;-76
2022/05/09 01:51:19;;;;;;;14.98;3.53;;;12.30;99.90;;;;;;5014960;28;20045;-76
2022/05/09 01:53:52;;;;;;;13.63;5.20;;;12.40;99.90;;;;;;5032852;28;20032;-75
2022/05/09 01:56:20;;;;;;;15.48;4.43;;;12.50;99.90;;;;;;5032659;28;20040;-75
2022/05/09 01:58:46;;;;;;;13.40;4.22;;;12.50;99.90;;;;;;5032659;28;20386;-75
2022/05/09 02:01:12;;;;;;;13.00;4.00;;;12.50;99.90;;;;;;5014732;28;20030;-76
2022/05/09 02:03:38;;;;;;;17.27;4.45;;;12.40;99.90;;;;;;5026476;28;20027;-76
2022/05/09 02:06:06;;;;;;;11.00;4.57;;;12.50;99.90;;;;;;5072413;28;20020;-76
2022/05/09 02:08:32;;;;;;;16.88;4.85;;;12.20;99.90;;;;;;5072372;28;20100;-75
2022/05/09 02:10:58;;;;;;;12.40;4.43;;;12.20;99.90;;;;;;5072169;28;20124;-76
2022/05/09 02:13:24;;;;;;;16.55;4.47;;;12.30;99.90;;;;;;5072443;28;20040;-76
2022/05/09 02:15:49;;;;;;;19.13;5.72;;;12.40;99.90;;;;;;5072476;28;20044;-76
2022/05/09 02:18:15;;;;;;;11.93;4.57;;;12.40;99.90;;;;;;5072481;28;20032;-76
2022/05/09 02:20:41;;;;;;;14.20;4.55;;;12.50;99.90;;;;;;5076254;28;20073;-75
2022/05/09 02:23:07;;;;;;;11.48;4.60;;;12.00;99.90;;;;;;5076274;28;20024;-75
2022/05/09 02:25:33;;;;;;;13.73;5.10;;;12.00;99.90;;;;;;5075643;28;20040;-74
2022/05/09 02:28:06;;;;;;;14.00;5.78;;;11.50;99.90;;;;;;5076047;28;20109;-76
2022/05/09 02:30:33;;;;;;;13.27;4.32;;;11.50;99.90;;;;;;5075870;28;20048;-75
2022/05/09 02:32:58;;;;;;;14.93;4.82;;;11.50;99.90;;;;;;5075944;28;20021;-75
2022/05/09 02:35:25;;;;;;;13.60;4.80;;;11.40;99.90;;;;;;5055901;28;20033;-75
2022/05/09 02:37:54;;;;;;;15.48;5.13;;;11.60;99.90;;;;;;5036042;28;20033;-75
2022/05/09 02:40:20;;;;;;;12.48;5.47;;;11.40;99.90;;;;;;5017615;28;20379;-75
2022/05/09 02:42:46;;;;;;;11.23;4.22;;;11.20;99.90;;;;;;5035835;28;20029;-75
2022/05/09 02:45:12;;;;;;;12.25;4.28;;;11.50;99.90;;;;;;5035785;28;20045;-75
2022/05/09 02:47:40;;;;;;;20.52;5.25;;;11.30;99.90;;;;;;5048730;28;20025;-75
2022/05/09 02:50:07;;;;;;;20.95;5.60;;;11.50;99.90;;;;;;5037874;28;20127;-75
2022/05/09 02:52:33;;;;;;;16.05;4.95;;;11.20;99.90;;;;;;5055510;28;20072;-75
2022/05/09 02:54:58;;;;;;;17.30;5.10;;;11.50;99.90;;;;;;5055257;28;20073;-76
2022/05/09 02:57:24;;;;;;;14.77;5.82;;;11.90;99.90;;;;;;5055579;28;20096;-75
2022/05/09 02:59:50;;;;;;;17.85;5.05;;;11.80;99.90;;;;;;5055526;28;20036;-74
2022/05/09 03:02:16;;;;;;;12.05;5.05;;;11.80;99.90;;;;;;5055350;28;20388;-75
2022/05/09 03:04:42;;;;;;;11.38;5.38;;;11.60;99.90;;;;;;5055142;28;20021;-74
2022/05/09 03:07:14;;;;;;;12.32;5.13;;;11.70;99.90;;;;;;5055211;28;20060;-75
2022/05/09 03:09:42;;;;;;;13.32;5.80;;;11.40;99.90;;;;;;5054914;28;20128;-76
2022/05/09 03:12:09;;;;;;;11.95;4.65;;;11.40;99.90;;;;;;5055286;28;20025;-74
2022/05/09 03:14:35;;;;;;;13.18;5.32;;;11.50;99.90;;;;;;5055150;28;20029;-75
2022/05/09 03:17:01;;;;;;;17.52;5.20;;;11.60;99.90;;;;;;5055390;28;20388;-74
2022/05/09 03:19:27;;;;;;;18.30;5.07;;;11.50;99.90;;;;;;5055228;28;20021;-74
2022/05/09 03:21:53;;;;;;;12.80;5.15;;;11.30;99.90;;;;;;5054969;28;20477;-74
2022/05/09 03:24:19;;;;;;;13.77;5.07;;;11.10;99.90;;;;;;5054938;28;20105;-74
2022/05/09 03:26:46;;;;;;;16.02;5.90;;;11.30;99.90;;;;;;5054901;28;20075;-75
2022/05/09 03:29:13;;;;;;;14.60;5.75;;;11.50;99.90;;;;;;5055031;28;20041;-75
2022/05/09 03:31:39;;;;;;;14.93;5.40;;;11.50;99.90;;;;;;5053638;28;20033;-76
2022/05/09 03:34:05;;;;;;;18.45;5.68;;;11.40;99.90;;;;;;5054840;28;20031;-75
2022/05/09 03:36:31;;;;;;;12.82;5.72;;;11.10;99.90;;;;;;5055225;28;20118;-74
2022/05/09 03:38:59;;;;;;;10.45;5.38;;;11.20;99.90;;;;;;5054570;28;20489;-74
2022/05/09 03:41:25;;;;;;;13.80;6.28;;;11.20;99.90;;;;;;5054778;28;20044;-74
2022/05/09 03:43:51;;;;;;;17.90;5.95;;;11.30;99.90;;;;;;5036820;28;20029;-74
2022/05/09 03:46:17;;;;;;;13.02;5.07;;;11.20;99.90;;;;;;5054402;28;20052;-74
2022/05/09 03:48:43;;;;;;;13.85;5.25;;;11.30;99.90;;;;;;5054751;28;20476;-75
2022/05/09 03:51:09;;;;;;;27.13;6.05;;;11.00;99.90;;;;;;5054527;28;20040;-75
2022/05/09 03:53:35;;;;;;;16.33;5.80;;;11.10;99.90;;;;;;5054197;28;20025;-75
2022/05/09 03:56:01;;;;;;;16.95;6.00;;;11.10;99.90;;;;;;5054572;28;20386;-75
2022/05/09 03:58:27;;;;;;;14.90;5.22;;;11.20;99.90;;;;;;5054471;28;20393;-75
2022/05/09 04:00:53;;;;;;;21.00;5.63;;;11.10;99.90;;;;;;5054409;28;20043;-75
2022/05/09 04:03:20;;;;;;;16.02;6.47;;;11.10;99.90;;;;;;5054220;28;20021;-76
2022/05/09 04:05:48;;;;;;;23.48;5.28;;;11.10;99.90;;;;;;5036624;28;20035;-75
2022/05/09 04:08:17;;;;;;;23.17;5.35;;;11.00;99.90;;;;;;5053349;28;20025;-76
2022/05/09 04:10:45;;;;;;;15.48;5.70;;;11.00;99.90;;;;;;5053924;28;20115;-75
2022/05/09 04:13:12;;;;;;;19.13;5.97;;;11.30;99.90;;;;;;5054245;28;20037;-75
2022/05/09 04:18:42;;;;;;;14.95;5.55;;;11.20;99.90;;;;;;5053919;28;20481;-75
2022/05/09 04:21:10;;;;;;;18.95;5.97;;;11.30;99.90;;;;;;5053750;28;20033;-75
2022/05/09 04:23:37;;;;;;;15.70;5.95;;;11.40;99.90;;;;;;5053694;28;20048;-76
2022/05/09 04:26:04;;;;;;;19.40;5.72;;;11.40;99.90;;;;;;5036119;28;20025;-76
2022/05/09 04:28:31;;;;;;;20.98;7.03;;;11.60;99.90;;;;;;5035831;28;20048;-76
2022/05/09 04:30:58;;;;;;;16.05;6.43;;;11.40;99.90;;;;;;5053740;28;20100;-75
2022/05/09 04:33:24;;;;;;;15.73;5.63;;;11.30;99.90;;;;;;5053626;28;20036;-76
2022/05/09 04:35:50;;;;;;;21.70;6.25;;;11.50;99.90;;;;;;5053734;28;20029;-75
2022/05/09 04:38:21;;;;;;;22.90;5.70;;;11.70;99.90;;;;;;5053230;28;20039;-75
2022/05/09 04:40:51;;;;;;;17.08;5.88;;;11.60;99.90;;;;;;5053695;28;20028;-75
2022/05/09 04:43:23;;;;;;;11.02;5.50;;;11.70;99.90;;;;;;5053175;28;20087;-75
2022/05/09 04:45:49;;;;;;;15.38;5.63;;;11.80;99.90;;;;;;5053598;28;20029;-74
2022/05/09 04:48:20;;;;;;;17.65;5.70;;;11.80;99.90;;;;;;5053358;28;20021;-75
2022/05/09 04:50:46;;;;;;;17.73;6.22;;;11.90;99.90;;;;;;5052951;28;20206;-74
2022/05/09 04:53:12;;;;;;;18.40;5.75;;;11.90;99.90;;;;;;5053271;28;20054;-74
2022/05/09 04:55:40;;;;;;;21.30;6.70;;;12.10;99.90;;;;;;5053525;28;20033;-75
2022/05/09 04:58:06;;;;;;;14.10;5.65;;;11.90;99.90;;;;;;5053304;28;20047;-75
2022/05/09 05:00:32;;;;;;;21.98;6.70;;;11.80;99.90;;;;;;5053350;28;20021;-75
2022/05/09 05:02:57;;;;;;;28.23;6.93;;;11.80;99.90;;;;;;5052893;28;20063;-75
2022/05/09 05:05:25;;;;;;;31.45;7.25;;;11.80;99.90;;;;;;5052703;28;20109;-75
2022/05/09 05:07:51;;;;;;;23.80;7.00;;;11.80;99.90;;;;;;5053124;28;20432;-75
2022/05/09 05:10:19;;;;;;;22.30;6.50;;;11.80;99.90;;;;;;5035244;28;20037;-73
2022/05/09 05:12:45;;;;;;;29.00;7.13;;;11.90;99.90;;;;;;5052999;28;20424;-75
2022/05/09 05:15:12;;;;;;;18.98;6.50;;;12.00;99.90;;;;;;5035261;28;20021;-74
2022/05/09 05:17:38;;;;;;;21.08;6.35;;;11.90;99.90;;;;;;5053011;28;20029;-75
2022/05/09 05:20:12;;;;;;;27.63;6.20;;;11.90;99.90;;;;;;5052679;28;20064;-75
2022/05/09 05:22:40;;;;;;;27.15;6.57;;;12.00;99.90;;;;;;5052460;28;20025;-74
2022/05/09 05:25:06;;;;;;;24.88;6.97;;;12.30;99.90;;;;;;5046720;28;20100;-73
2022/05/09 05:27:32;;;;;;;17.67;6.50;;;12.30;99.90;;;;;;5037939;28;20068;-74
2022/05/09 05:29:59;;;;;;;25.65;7.53;;;12.30;99.90;;;;;;5032968;28;20080;-74
2022/05/09 05:32:28;;;;;;;23.33;7.80;;;12.30;99.90;;;;;;5032861;28;20032;-75
2022/05/09 05:34:54;;;;;;;25.73;5.90;;;12.60;99.90;;;;;;5032274;28;20084;-73
2022/05/09 05:37:20;;;;;;;13.27;6.22;;;12.60;99.90;;;;;;5032855;28;20064;-73
2022/05/09 05:39:47;;;;;;;29.45;6.50;;;12.80;99.90;;;;;;5014966;28;20030;-74
2022/05/09 05:42:16;;;;;;;37.30;9.63;;;12.60;99.90;;;;;;5032799;28;20470;-75
2022/05/09 05:44:42;;;;;;;16.00;6.40;;;12.70;99.90;;;;;;5032273;28;20022;-77
2022/05/09 05:47:10;;;;;;;20.67;7.03;;;12.60;99.90;;;;;;5023641;28;20036;-75
2022/05/09 05:49:38;;;;;;;24.02;6.55;;;12.90;99.90;;;;;;5052145;28;20037;-75
2022/05/09 05:52:04;;;;;;;24.48;6.00;;;13.00;99.90;;;;;;5053237;28;20029;-75
2022/05/09 05:54:36;;;;;;;20.88;7.10;;;13.10;99.90;;;;;;5054436;28;20033;-75
2022/05/09 05:57:04;;;;;;;18.70;5.82;;;13.30;99.90;;;;;;5056878;28;20381;-76
2022/05/09 05:59:30;;;;;;;22.42;6.18;;;13.20;99.90;;;;;;5056590;28;20029;-76
2022/05/09 06:01:59;;;;;;;20.67;6.03;;;13.30;99.90;;;;;;5056612;28;20021;-76
2022/05/09 06:04:25;;;;;;;17.35;6.88;;;13.60;99.90;;;;;;5037839;28;20370;-77
2022/05/09 06:06:51;;;;;;;26.13;6.63;;;13.70;99.90;;;;;;5038457;28;20033;-76
2022/05/09 06:09:17;;;;;;;19.50;5.45;;;13.70;99.90;;;;;;5038224;28;20086;-76
2022/05/09 06:11:43;;;;;;;19.77;6.32;;;13.80;99.90;;;;;;5038807;28;20025;-76
2022/05/09 06:14:11;;;;;;;20.13;6.30;;;13.70;99.90;;;;;;5056339;28;20025;-78
2022/05/09 06:16:37;;;;;;;17.67;5.43;;;13.50;99.90;;;;;;5056298;28;20390;-76
2022/05/09 06:19:04;;;;;;;14.45;5.47;;;13.50;99.90;;;;;;5055774;28;20032;-76
2022/05/09 06:21:33;;;;;;;14.52;6.00;;;13.50;99.90;;;;;;5055181;28;20524;-76
2022/05/09 06:24:00;;;;;;;19.75;6.03;;;13.50;99.90;;;;;;5048210;28;20577;-76
2022/05/09 06:26:27;;;;;;;23.80;6.32;;;13.60;99.90;;;;;;5041663;28;20029;-75
2022/05/09 06:28:54;;;;;;;16.27;5.40;;;13.80;99.90;;;;;;5033833;28;20089;-74
2022/05/09 06:31:19;;;;;;;18.25;6.05;;;13.90;99.90;;;;;;5039915;28;20021;-75
2022/05/09 06:33:45;;;;;;;19.73;6.10;;;14.30;99.90;;;;;;5046767;28;20041;-76
2022/05/09 06:36:11;;;;;;;17.40;6.22;;;14.40;99.90;;;;;;5046912;28;20033;-75
2022/05/09 06:38:37;;;;;;;20.67;5.85;;;14.50;99.90;;;;;;5056314;28;20025;-75
2022/05/09 06:41:03;;;;;;;25.67;6.68;;;14.70;99.90;;;;;;5052645;28;20041;-75
2022/05/09 06:43:30;;;;;;;21.48;7.43;;;14.60;99.90;;;;;;5041153;28;20035;-75
2022/05/09 06:45:57;;;;;;;18.55;6.60;;;14.50;99.90;;;;;;5045109;28;20029;-74
2022/05/09 06:48:23;;;;;;;19.13;5.97;;;14.70;99.90;;;;;;5034551;28;20390;-73
2022/05/09 06:50:49;;;;;;;19.92;6.43;;;14.90;99.90;;;;;;5020519;28;20042;-75
2022/05/09 06:53:15;;;;;;;19.10;6.10;;;14.80;99.90;;;;;;5049722;28;20032;-75
2022/05/09 06:55:41;;;;;;;21.95;6.18;;;15.20;99.90;;;;;;5042372;28;20025;-74
2022/05/09 06:58:12;;;;;;;17.75;5.93;;;15.20;99.90;;;;;;5043807;28;20041;-75
2022/05/09 07:00:38;;;;;;;16.93;5.47;;;15.20;99.40;;;;;;5050576;28;20554;-75
2022/05/09 07:03:04;;;;;;;15.93;5.30;;;15.40;99.50;;;;;;5041309;28;20024;-75
2022/05/09 07:05:31;;;;;;;23.63;5.80;;;15.50;98.70;;;;;;5048233;28;20040;-75
2022/05/09 07:07:57;;;;;;;17.95;5.72;;;15.80;99.00;;;;;;5027837;28;20036;-76
2022/05/09 07:10:26;;;;;;;17.90;6.40;;;15.90;97.90;;;;;;5041863;28;20148;-76
2022/05/09 07:12:54;;;;;;;18.05;5.88;;;16.00;98.30;;;;;;5051731;28;20059;-75
2022/05/09 07:15:24;;;;;;;18.98;7.43;;;16.00;96.80;;;;;;5039122;28;20053;-75
2022/05/09 07:17:51;;;;;;;22.90;6.00;;;16.10;98.60;;;;;;5049038;28;20426;-75
2022/05/09 07:20:18;;;;;;;21.63;5.90;;;15.90;97.10;;;;;;5033142;28;20544;-75
2022/05/09 07:22:46;;;;;;;18.60;6.25;;;15.90;97.80;;;;;;5050054;28;20213;-75
2022/05/09 07:25:14;;;;;;;17.98;5.88;;;16.20;98.10;;;;;;5053383;28;20124;-75
2022/05/09 07:27:44;;;;;;;21.48;6.38;;;16.10;96.80;;;;;;5052993;28;20481;-75
2022/05/09 07:30:14;;;;;;;19.65;6.43;;;16.30;96.50;;;;;;5045454;28;20485;-74
2022/05/09 07:32:41;;;;;;;19.75;6.40;;;16.60;95.80;;;;;;5052531;28;20033;-75
2022/05/09 07:35:10;;;;;;;22.10;6.68;;;16.70;96.70;;;;;;5048896;28;20082;-75
2022/05/09 07:37:37;;;;;;;16.83;6.10;;;16.70;95.60;;;;;;5043870;28;20044;-74
2022/05/09 07:40:03;;;;;;;22.15;6.15;;;16.50;96.50;;;;;;5040438;28;20508;-75
2022/05/09 07:42:29;;;;;;;26.17;6.15;;;16.80;98.70;;;;;;5050814;28;20396;-75
2022/05/09 07:44:56;;;;;;;18.45;6.65;;;16.90;96.50;;;;;;5037629;28;20112;-75
2022/05/09 07:47:23;;;;;;;20.67;6.05;;;17.00;99.20;;;;;;5050607;28;20155;-74
2022/05/09 07:49:50;;;;;;;18.15;6.05;;;17.10;99.90;;;;;;5049277;28;20029;-75
2022/05/09 07:52:16;;;;;;;20.10;6.15;;;17.40;99.80;;;;;;5053973;28;20033;-76
2022/05/09 07:54:41;;;;;;;22.83;6.43;;;17.70;95.40;;;;;;5039062;28;20458;-75
2022/05/09 07:57:07;;;;;;;19.15;6.43;;;17.60;95.30;;;;;;5048529;28;20017;-76
2022/05/09 07:59:33;;;;;;;16.83;5.38;;;17.60;96.50;;;;;;5042562;28;20116;-75
2022/05/09 08:01:58;;;;;;;20.83;5.93;;;17.80;96.60;;;;;;5040978;28;20038;-76
2022/05/09 08:04:24;;;;;;;17.25;6.03;;;17.80;94.80;;;;;;5032833;28;20033;-76
2022/05/09 08:06:50;;;;;;;17.15;5.50;;;17.70;94.30;;;;;;5032533;28;20041;-75
2022/05/09 08:09:16;;;;;;;12.20;5.57;;;17.80;94.70;;;;;;5029875;28;20036;-74
2022/05/09 08:11:42;;;;;;;14.32;5.53;;;17.90;95.60;;;;;;5053493;28;20029;-77
2022/05/09 08:14:08;;;;;;;21.58;5.78;;;18.00;94.40;;;;;;5039558;28;20022;-76
2022/05/09 08:16:34;;;;;;;15.82;5.93;;;18.60;94.00;;;;;;5049228;28;20051;-76
2022/05/09 08:19:04;;;;;;;21.42;5.60;;;18.60;94.60;;;;;;5038829;28;20365;-76
2022/05/09 08:21:31;;;;;;;16.20;5.95;;;19.10;95.00;;;;;;5044953;28;20040;-76
2022/05/09 08:23:58;;;;;;;19.88;5.40;;;19.10;93.60;;;;;;5045212;28;20108;-76
2022/05/09 08:26:24;;;;;;;20.25;5.55;;;19.10;94.90;;;;;;5019725;28;20045;-76
2022/05/09 08:28:53;;;;;;;17.33;5.70;;;19.10;93.70;;;;;;5049586;28;20074;-76
2022/05/09 08:31:19;;;;;;;15.32;5.43;;;19.20;96.00;;;;;;5041710;28;20041;-76
2022/05/09 08:33:47;;;;;;;16.60;5.63;;;19.20;95.30;;;;;;5043800;28;20033;-76
2022/05/09 08:36:45;;;;;;;17.85;4.30;;;19.50;91.20;;;;;;5038908;28;20112;-75
2022/05/09 08:39:00;;;;;;;26.60;5.75;;;19.60;91.40;;;;;;5037572;28;20029;-76
2022/05/09 08:41:31;;;;;;;13.15;4.40;;;19.70;95.10;;;;;;5058964;28;20461;-76
2022/05/09 08:44:19;;;;;;;11.05;3.53;;;19.90;93.50;;;;;;5059146;28;20497;-76
2022/05/09 08:47:12;;;;;;;16.65;4.03;;;20.20;91.80;;;;;;5048941;28;20091;-75
2022/05/09 08:49:47;;;;;;;15.57;4.13;;;20.10;91.80;;;;;;5052730;28;20083;-76
2022/05/09 08:52:49;;;;;;;15.43;4.68;;;20.40;93.10;;;;;;5053029;28;20468;-77
2022/05/09 08:55:22;;;;;;;14.18;3.53;;;20.50;91.40;;;;;;5039738;28;20025;-77
2022/05/09 08:57:56;;;;;;;13.13;3.67;;;20.40;91.70;;;;;;5056479;28;20036;-77
2022/05/09 09:00:27;;;;;;;9.68;2.80;;;20.70;90.00;;;;;;5057074;28;20024;-76
2022/05/09 09:03:37;;;;;;;11.50;2.95;;;20.70;86.50;;;;;;5037057;28;20021;-76
2022/05/09 09:06:32;;;;;;;16.85;3.25;;;20.90;87.70;;;;;;4991120;28;20511;-76
2022/05/09 09:09:11;;;;;;;13.07;3.63;;;21.10;89.90;;;;;;4973474;28;20117;-77
2022/05/09 09:12:18;;;;;;;15.77;3.63;;;21.10;89.10;;;;;;5038265;28;20393;-76
2022/05/09 09:15:11;;;;;;;12.30;2.72;;;21.30;89.60;;;;;;4977377;28;20529;-77
2022/05/09 09:17:58;;;;;;;12.35;2.85;;;21.70;88.60;;;;;;5050512;28;20503;-75
2022/05/09 09:20:31;;;;;;;5.85;2.05;;;21.70;88.00;;;;;;5052620;28;20041;-76
2022/05/09 09:23:14;;;;;;;7.95;2.05;;;21.50;81.20;;;;;;5040012;28;20035;-77
2022/05/09 09:26:00;;;;;;;10.15;1.80;;;21.40;88.70;;;;;;5052173;28;20384;-76
2022/05/09 09:28:35;;;;;;;15.38;2.95;;;21.40;83.50;;;;;;5035241;28;20028;-77
2022/05/09 09:31:06;;;;;;;8.25;1.65;;;21.10;83.10;;;;;;5040725;28;20033;-77
2022/05/09 09:33:33;;;;;;;8.23;2.40;;;21.30;79.10;;;;;;5041443;28;20457;-77
2022/05/09 09:36:07;;;;;;;8.73;1.42;;;21.50;83.10;;;;;;5039709;28;20056;-78
2022/05/09 09:38:45;;;;;;;10.40;2.00;;;21.70;81.40;;;;;;5048824;28;20033;-76
2022/05/09 09:41:23;;;;;;;10.30;2.50;;;21.90;82.80;;;;;;5038149;28;20112;-78
2022/05/09 09:43:57;;;;;;;9.95;2.80;;;22.00;80.60;;;;;;5040814;28;20026;-78
2022/05/09 09:46:23;;;;;;;7.65;2.42;;;22.00;81.20;;;;;;5049022;28;20362;-77
2022/05/09 09:49:07;;;;;;;13.27;3.22;;;22.40;87.40;;;;;;5042391;28;20351;-77
2022/05/09 09:51:47;;;;;;;9.98;3.03;;;22.80;83.50;;;;;;5052117;28;20643;-77
2022/05/09 09:54:16;;;;;;;16.17;3.70;;;23.30;82.90;;;;;;5037633;28;20040;-78
2022/05/09 09:56:42;;;;;;;11.77;2.60;;;23.50;81.40;;;;;;5044264;28;20123;-78
2022/05/09 09:59:13;;;;;;;12.90;2.88;;;23.60;79.50;;;;;;5051941;28;20045;-76
2022/05/09 10:01:43;;;;;;;11.38;3.22;;;23.50;80.80;;;;;;5038241;28;20390;-77
2022/05/09 10:04:14;;;;;;;13.00;3.28;;;23.30;77.60;;;;;;5046516;28;20033;-77
2022/05/09 10:06:55;;;;;;;;;;;23.50;81.40;;;;;;5040431;28;20479;-78
2022/05/09 10:09:21;;;;;;;10.52;3.28;;;23.80;82.40;;;;;;5048306;28;20258;-78
2022/05/09 10:11:47;;;;;;;12.95;3.58;;;23.60;79.80;;;;;;5036587;28;20100;-77
2022/05/09 10:14:32;;;;;;;8.77;3.10;;;23.60;80.60;;;;;;5043556;28;20033;-78
2022/05/09 10:17:38;;;;;;;10.13;3.20;;;23.20;77.70;;;;;;5046599;28;20032;-77
2022/05/09 10:20:40;;;;;;;25.33;3.25;;;23.30;75.90;;;;;;5025741;28;20477;-77
2022/05/09 10:26:24;;;;;;;12.00;3.33;;;23.30;76.10;;;;;;5031926;28;20112;-77
2022/05/09 10:29:15;;;;;;;13.15;3.10;;;22.60;76.60;;;;;;5031983;28;20112;-76
2022/05/09 10:31:47;;;;;;;14.90;2.97;;;22.90;81.60;;;;;;5050607;28;20051;-74
2022/05/09 10:34:30;;;;;;;13.75;4.38;;;23.50;80.90;;;;;;5033955;28;20043;-74
2022/05/09 10:37:12;;;;;;;13.52;3.25;;;23.30;78.90;;;;;;5050421;28;20532;-75
2022/05/09 10:39:43;;;;;;;9.82;3.17;;;22.90;76.90;;;;;;5051651;28;20039;-75
2022/05/09 10:42:12;;;;;;;15.85;3.17;;;22.90;76.30;;;;;;5055847;28;20083;-75
2022/05/09 10:45:04;;;;;;;18.75;3.35;;;22.90;75.20;;;;;;5037896;28;20100;-75
2022/05/09 10:47:52;;;;;;;10.55;2.83;;;22.70;76.80;;;;;;5055907;28;20021;-75
2022/05/09 10:50:28;;;;;;;9.95;3.00;;;23.60;79.70;;;;;;5055559;28;20048;-75
2022/05/09 10:53:15;;;;;;;13.52;3.38;;;23.60;77.60;;;;;;5055694;28;20029;-76
2022/05/09 10:56:15;;;;;;;11.15;2.85;;;23.40;74.80;;;;;;5055521;28;20482;-75
2022/05/09 10:59:02;;;;;;;8.85;2.90;;;23.50;77.40;;;;;;5074112;28;20542;-75
2022/05/09 11:01:37;;;;;;;11.05;3.15;;;24.10;78.90;;;;;;5057375;28;20161;-75
2022/05/09 11:04:03;;;;;;;14.15;4.07;;;24.50;79.10;;;;;;5043500;28;20035;-75
2022/05/09 11:07:07;;;;;;;17.75;3.33;;;24.70;76.40;;;;;;5055266;28;20040;-75
2022/05/09 11:09:57;;;;;;;9.70;2.85;;;25.10;73.60;;;;;;4967975;28;20068;-75
2022/05/09 11:12:52;;;;;;;21.67;3.30;;;24.90;77.10;;;;;;5055129;28;20100;-75
2022/05/09 11:15:43;;;;;;;14.18;2.83;;;23.90;74.40;;;;;;5055285;28;20074;-75
2022/05/09 11:18:46;;;;;;;7.32;2.92;;;23.60;75.40;;;;;;5055193;28;20116;-75
2022/05/09 11:21:19;;;;;;;11.35;3.03;;;23.70;74.00;;;;;;5054920;28;20077;-75
2022/05/09 11:23:50;;;;;;;9.32;2.75;;;23.80;74.10;;;;;;5054914;28;20500;-75
2022/05/09 11:26:31;;;;;;;12.13;3.17;;;24.40;75.80;;;;;;5055150;28;20033;-75
2022/05/09 11:29:35;;;;;;;7.93;2.85;;;25.00;73.60;;;;;;5055052;28;20037;-75
2022/05/09 11:32:29;;;;;;;9.93;2.88;;;25.40;74.30;;;;;;5054938;28;20068;-75
2022/05/09 11:35:13;;;;;;;20.45;3.83;;;25.90;74.90;;;;;;5055235;28;20109;-75
2022/05/09 11:37:52;;;;;;;9.85;3.25;;;25.20;72.20;;;;;;5054672;28;20068;-75
2022/05/09 11:40:47;;;;;;;9.90;3.00;;;24.60;75.20;;;;;;5054775;28;20033;-75
2022/05/09 11:43:28;;;;;;;12.40;5.05;;;25.20;76.10;;;;;;5033954;28;20044;-75
2022/05/09 11:46:20;;;;;;;11.13;3.97;;;25.40;73.00;;;;;;5054514;28;20036;-75
2022/05/09 11:49:06;;;;;;;11.20;3.72;;;25.00;73.50;;;;;;5034867;28;20045;-75
2022/05/09 11:51:49;;;;;;;11.93;4.45;;;24.80;75.00;;;;;;5034013;28;20033;-75
2022/05/09 11:54:27;;;;;;;12.27;4.90;;;24.80;74.70;;;;;;5034828;28;20072;-75
2022/05/09 11:56:56;;;;;;;11.68;3.83;;;24.80;75.20;;;;;;5016768;28;20029;-75
2022/05/09 11:59:25;;;;;;;13.63;4.32;;;25.20;76.70;;;;;;5034609;28;20108;-75
2022/05/09 12:01:57;;;;;;;14.43;4.13;;;25.20;75.70;;;;;;5016920;28;20041;-75
2022/05/09 12:04:46;;;;;;;16.40;5.53;;;25.10;74.80;;;;;;5051152;28;20366;-75
2022/05/09 12:07:21;;;;;;;16.30;4.55;;;25.40;73.10;;;;;;5053941;28;20089;-75
2022/05/09 12:10:11;;;;;;;10.90;4.50;;;25.50;73.50;;;;;;5054296;28;20063;-75
2022/05/09 12:12:37;;;;;;;15.40;4.43;;;25.20;74.10;;;;;;5054577;28;20055;-74
2022/05/09 12:15:30;;;;;;;10.82;3.80;;;25.70;74.30;;;;;;5054179;28;20541;-74
2022/05/09 12:17:58;;;;;;;12.93;5.10;;;26.80;73.30;;;;;;5053927;28;20029;-73
2022/05/09 12:20:27;;;;;;;14.15;4.25;;;26.50;71.50;;;;;;5053893;28;20029;-74
2022/05/09 12:22:58;;;;;;;13.30;4.22;;;27.00;72.80;;;;;;5053939;28;20470;-74
2022/05/09 12:25:33;;;;;;;14.38;4.07;;;27.30;72.70;;;;;;5054095;28;20535;-74
2022/05/09 12:28:20;;;;;;;9.95;3.90;;;27.60;72.30;;;;;;5053933;28;20040;-74
2022/05/09 12:31:06;;;;;;;10.38;4.70;;;26.70;72.40;;;;;;5053588;28;20037;-74
2022/05/09 12:33:46;;;;;;;9.02;4.20;;;26.40;72.30;;;;;;5034700;28;20102;-74
2022/05/09 12:36:30;;;;;;;9.02;4.20;;;26.20;73.40;;;;;;5053450;28;20546;-73
2022/05/09 12:39:20;;;;;;;10.75;4.25;;;26.40;72.80;;;;;;5053526;28;20171;-74
2022/05/09 12:41:53;;;;;;;12.77;3.78;;;26.00;72.80;;;;;;5052165;28;20047;-74
2022/05/09 12:44:21;;;;;;;12.43;3.97;;;27.00;73.50;;;;;;5035873;28;20044;-75
2022/05/09 12:46:55;;;;;;;11.15;4.35;;;27.20;71.70;;;;;;5053364;28;20021;-74
2022/05/09 12:49:46;;;;;;;10.30;4.70;;;26.90;72.00;;;;;;5052585;28;20060;-73
2022/05/09 12:52:19;;;;;;;12.52;4.50;;;27.10;73.70;;;;;;5052903;28;20122;-74
2022/05/09 12:55:52;;;;;;;7.53;4.40;;;26.60;71.80;;;;;;5053442;28;20025;-74
2022/05/09 12:57:38;;;;;;;7.15;4.03;;;26.40;71.70;;;;;;5053136;28;20113;-74
2022/05/09 13:00:24;;;;;;;8.18;4.03;;;26.70;71.60;;;;;;5053238;28;20032;-73
2022/05/09 13:02:50;;;;;;;11.05;4.60;;;26.20;72.00;;;;;;5052889;28;20484;-74
2022/05/09 13:05:17;;;;;;;14.68;4.32;;;27.00;72.90;;;;;;5053416;28;20025;-74
2022/05/09 13:07:54;;;;;;;15.40;3.95;;;27.30;71.10;;;;;;5035354;28;20401;-74
2022/05/09 13:10:20;;;;;;;11.30;4.00;;;27.80;70.90;;;;;;5053223;28;20040;-74